createdAt,value
2022-09-30T00:01:35.814Z,279.13
2022-09-30T00:04:04.711Z,304.83
2022-09-30T00:06:35.150Z,282.70
2022-09-30T00:09:04.053Z,291.93
2022-09-30T00:11:34.728Z,292.23
2022-09-30T00:14:04.395Z,304.27
2022-09-30T00:16:35.433Z,314.53
2022-09-30T00:19:05.480Z,316.27
2022-09-30T00:21:34.848Z,265.37
2022-09-30T00:24:04.100Z,314.20
2022-09-30T00:26:32.625Z,308.07
2022-09-30T00:29:01.844Z,299.43
2022-09-30T00:31:33.760Z,268.27
2022-09-30T00:34:08.935Z,305.63
2022-09-30T00:36:39.586Z,324.53
2022-09-30T00:39:09.820Z,297.77
2022-09-30T00:41:39.136Z,281.43
2022-09-30T00:44:57.914Z,274.87
2022-09-30T00:47:37.710Z,445.40
2022-09-30T00:50:14.648Z,378.93
2022-09-30T00:52:43.861Z,345.40
2022-09-30T00:55:22.002Z,329.83
2022-09-30T00:57:50.066Z,339.07
2022-09-30T01:00:18.227Z,319.00
2022-09-30T01:02:50.525Z,287.80
2022-09-30T01:05:18.815Z,306.10
2022-09-30T01:07:47.342Z,284.63
2022-09-30T01:10:15.357Z,276.07
2022-09-30T01:12:43.497Z,284.53
2022-09-30T01:15:11.943Z,256.60
2022-09-30T01:17:51.161Z,280.70
2022-09-30T01:20:50.372Z,309.57
2022-09-30T01:23:38.438Z,377.13
2022-09-30T01:26:35.986Z,365.80
2022-09-30T01:29:35.919Z,388.43
2022-09-30T01:32:16.815Z,398.90
2022-09-30T01:34:55.258Z,345.97
2022-09-30T01:37:32.867Z,321.83
2022-09-30T01:40:06.941Z,322.40
2022-09-30T01:42:43.105Z,311.80
2022-09-30T01:45:17.645Z,309.03
2022-09-30T01:47:51.076Z,330.40
2022-09-30T01:50:25.188Z,307.17
2022-09-30T01:53:04.596Z,304.90
2022-09-30T01:55:36.902Z,314.20
2022-09-30T01:58:12.471Z,317.43
2022-09-30T02:00:45.171Z,332.23
2022-09-30T02:03:19.140Z,304.23
2022-09-30T02:05:54.425Z,304.60
2022-09-30T02:08:29.770Z,288.60
2022-09-30T02:11:01.004Z,314.70
2022-09-30T02:13:35.159Z,289.97
2022-09-30T02:16:12.936Z,331.97
2022-09-30T02:18:46.012Z,344.87
2022-09-30T02:21:19.526Z,324.23
2022-09-30T02:23:50.432Z,314.13
2022-09-30T02:26:23.262Z,295.73
2022-09-30T02:28:55.649Z,288.97
2022-09-30T02:31:27.371Z,303.17
2022-09-30T02:34:02.998Z,303.63
2022-09-30T02:36:35.197Z,322.03
2022-09-30T02:39:08.135Z,325.17
2022-09-30T02:41:41.936Z,315.50
2022-09-30T02:44:10.647Z,334.90
2022-09-30T02:46:46.351Z,300.57
2022-09-30T02:49:21.758Z,310.03
2022-09-30T02:52:07.281Z,326.33
2022-09-30T02:54:40.542Z,356.80
2022-09-30T02:57:20.187Z,367.57
2022-09-30T02:59:52.160Z,386.00
2022-09-30T03:02:21.815Z,361.93
2022-09-30T03:04:51.872Z,334.53
2022-09-30T03:07:20.105Z,348.07
2022-09-30T03:09:48.489Z,330.80
2022-09-30T03:12:27.507Z,472.43
2022-09-30T03:15:09.988Z,445.23
2022-09-30T03:18:01.163Z,474.53
2022-09-30T03:20:40.226Z,556.80
2022-09-30T03:23:31.358Z,525.97
2022-09-30T03:26:12.245Z,524.70
2022-09-30T03:28:49.786Z,516.73
2022-09-30T03:31:31.285Z,459.30
2022-09-30T03:34:06.999Z,450.30
2022-09-30T03:36:42.415Z,397.30
2022-09-30T03:39:23.871Z,418.17
2022-09-30T03:41:59.312Z,485.47
2022-09-30T03:44:34.026Z,481.93
2022-09-30T03:47:08.585Z,486.83
2022-09-30T03:49:41.191Z,577.23
2022-09-30T03:52:13.673Z,377.17
2022-09-30T03:54:50.720Z,405.23
2022-09-30T03:57:18.805Z,417.90
2022-09-30T03:59:47.263Z,363.93
2022-09-30T04:02:15.389Z,356.10
2022-09-30T04:04:43.853Z,330.60
2022-09-30T04:07:13.643Z,402.00
2022-09-30T04:09:42.078Z,378.77
2022-09-30T04:12:10.451Z,377.43
2022-09-30T04:14:38.601Z,410.03
2022-09-30T04:17:07.160Z,396.27
2022-09-30T04:19:38.149Z,450.30
2022-09-30T04:22:06.791Z,416.83
2022-09-30T04:24:36.652Z,416.57
2022-09-30T04:27:05.097Z,400.83
2022-09-30T04:29:33.163Z,406.73
2022-09-30T04:32:01.537Z,381.33
2022-09-30T04:34:29.533Z,417.43
2022-09-30T04:36:57.507Z,394.30
2022-09-30T04:39:25.582Z,373.57
2022-09-30T04:41:55.063Z,416.70
2022-09-30T04:44:23.398Z,452.33
2022-09-30T04:46:51.751Z,416.30
2022-09-30T04:49:20.296Z,401.43
2022-09-30T04:51:48.564Z,447.87
2022-09-30T04:54:16.630Z,407.77
2022-09-30T04:56:44.646Z,399.43
2022-09-30T04:59:14.198Z,376.80
2022-09-30T05:01:44.435Z,440.70
2022-09-30T05:04:13.152Z,477.27
2022-09-30T05:06:41.689Z,393.73
2022-09-30T05:09:09.968Z,375.23
2022-09-30T05:11:42.595Z,302.03
2022-09-30T05:14:11.637Z,331.03
2022-09-30T05:16:41.210Z,342.73
2022-09-30T05:19:09.265Z,354.33
2022-09-30T05:21:37.485Z,392.23
2022-09-30T05:24:05.612Z,368.97
2022-09-30T05:26:33.705Z,391.07
2022-09-30T05:29:01.783Z,377.17
2022-09-30T05:31:29.933Z,354.23
2022-09-30T05:33:59.374Z,353.20
2022-09-30T05:36:27.573Z,338.87
2022-09-30T05:38:55.795Z,397.60
2022-09-30T05:41:24.482Z,402.63
2022-09-30T05:43:53.149Z,402.83
2022-09-30T05:46:21.719Z,329.50
2022-09-30T05:48:49.794Z,396.67
2022-09-30T05:51:19.229Z,482.17
2022-09-30T05:53:47.313Z,409.57
2022-09-30T05:56:15.378Z,408.67
2022-09-30T05:58:43.497Z,335.90
2022-09-30T06:01:14.541Z,353.10
2022-09-30T06:03:43.270Z,338.20
2022-09-30T06:06:11.610Z,296.53
2022-09-30T06:08:41.568Z,328.33
2022-09-30T06:11:12.748Z,320.50
2022-09-30T06:13:41.869Z,368.97
2022-09-30T06:16:11.724Z,346.33
2022-09-30T06:18:41.224Z,378.43
2022-09-30T06:21:12.089Z,367.70
2022-09-30T06:23:41.902Z,365.63
2022-09-30T06:26:12.311Z,371.83
2022-09-30T06:28:41.258Z,347.97
2022-09-30T06:31:09.623Z,382.60
2022-09-30T06:33:37.868Z,372.97
2022-09-30T06:36:07.173Z,359.30
2022-09-30T06:38:37.146Z,390.33
2022-09-30T06:41:07.886Z,394.90
2022-09-30T06:43:43.879Z,421.33
2022-09-30T06:46:29.834Z,720.33
2022-09-30T06:49:13.509Z,476.43
2022-09-30T06:51:42.082Z,427.80
2022-09-30T06:54:10.752Z,377.73
2022-09-30T06:56:40.444Z,325.43
2022-09-30T06:59:08.594Z,341.07
2022-09-30T07:01:36.806Z,335.13
2022-09-30T07:04:09.712Z,318.80
2022-09-30T07:06:38.917Z,285.20
2022-09-30T07:09:07.771Z,312.07
2022-09-30T07:11:36.631Z,356.20
2022-09-30T07:14:06.754Z,590.80
2022-09-30T07:16:35.255Z,363.40
2022-09-30T07:19:04.791Z,408.53
2022-09-30T07:21:32.872Z,443.57
2022-09-30T07:24:01.256Z,553.43
2022-09-30T07:26:30.920Z,607.00
2022-09-30T07:29:00.022Z,876.70
2022-09-30T07:31:35.015Z,992.27
2022-09-30T07:34:06.997Z,1053.73
2022-09-30T07:36:37.585Z,984.00
2022-09-30T07:39:08.199Z,972.20
2022-09-30T07:41:38.896Z,989.63
2022-09-30T07:44:13.220Z,1062.40
2022-09-30T07:46:44.574Z,1084.57
2022-09-30T07:49:15.983Z,1086.77
2022-09-30T07:51:45.526Z,1091.80
2022-09-30T07:54:17.013Z,1133.20
2022-09-30T07:57:08.711Z,1094.60
2022-09-30T07:59:36.829Z,1103.50
2022-09-30T08:02:07.625Z,1136.87
2022-09-30T08:04:39.122Z,1113.47
2022-09-30T08:07:10.463Z,1118.70
2022-09-30T08:09:38.645Z,1235.03
2022-09-30T08:12:07.007Z,1189.23
2022-09-30T08:14:35.215Z,1191.93
2022-09-30T08:17:03.448Z,1049.67
2022-09-30T08:19:34.147Z,1024.33
2022-09-30T08:24:36.165Z,2266.67
2022-09-30T08:27:04.557Z,2266.67
2022-09-30T08:32:20.823Z,2266.67
2022-09-30T08:34:50.670Z,2266.67
2022-09-30T08:37:18.755Z,2266.67
2022-09-30T08:39:48.348Z,2266.67
2022-09-30T08:42:37.380Z,2266.67
2022-09-30T08:45:17.127Z,2266.67
2022-09-30T08:47:53.171Z,2266.67
2022-09-30T08:50:30.253Z,2266.67
2022-09-30T08:53:02.929Z,2266.67
2022-09-30T08:55:36.610Z,2266.67
2022-09-30T08:58:07.249Z,2266.67
2022-09-30T09:00:36.674Z,2266.67
2022-09-30T09:03:05.070Z,2266.67
2022-09-30T09:05:49.960Z,2266.67
2022-09-30T09:08:30.267Z,2266.67
2022-09-30T09:11:09.008Z,2266.67
2022-09-30T09:13:47.659Z,2266.67
2022-09-30T09:16:25.929Z,2266.67
2022-09-30T09:19:04.689Z,2266.67
2022-09-30T09:21:48.540Z,2266.67
2022-09-30T09:24:20.207Z,2266.67
2022-09-30T09:26:49.288Z,2266.67
2022-09-30T09:29:31.535Z,2266.67
2022-09-30T09:32:01.984Z,2266.67
2022-09-30T09:34:31.712Z,2266.67
2022-09-30T09:37:12.668Z,2266.67
2022-09-30T09:40:04.501Z,2266.67
2022-09-30T09:42:50.832Z,2266.67
2022-09-30T09:45:27.994Z,2266.67
2022-09-30T09:47:57.210Z,2266.67
2022-09-30T09:50:35.920Z,2266.67
2022-09-30T09:53:33.793Z,2266.67
2022-09-30T09:56:04.081Z,2266.67
2022-09-30T09:58:34.687Z,2266.67
2022-09-30T10:01:32.288Z,2266.67
2022-09-30T10:04:16.381Z,2266.67
2022-09-30T10:06:51.398Z,2266.67
2022-09-30T10:09:29.160Z,2266.67
2022-09-30T10:12:30.554Z,2266.67
2022-09-30T10:15:05.205Z,2266.67
2022-09-30T10:17:35.930Z,2266.67
2022-09-30T10:20:08.219Z,2266.67
2022-09-30T10:22:37.451Z,2266.67
2022-09-30T10:25:19.171Z,2266.67
2022-09-30T10:27:54.536Z,2266.67
2022-09-30T10:30:39.871Z,2266.67
2022-09-30T10:33:19.237Z,2266.67
2022-09-30T10:35:54.183Z,2266.67
2022-09-30T10:38:23.244Z,2266.67
2022-09-30T10:40:53.371Z,2266.67
2022-09-30T10:43:28.063Z,2266.67
2022-09-30T10:46:21.324Z,2266.67
2022-09-30T10:48:51.912Z,2266.67
2022-09-30T10:51:26.106Z,2266.67
2022-09-30T10:53:54.910Z,2266.67
2022-09-30T10:56:45.764Z,2266.67
2022-09-30T10:59:23.669Z,2266.67
2022-09-30T11:01:58.615Z,2266.67
2022-09-30T11:04:35.044Z,2266.67
2022-09-30T11:07:15.661Z,2266.67
2022-09-30T11:09:51.179Z,2266.67
2022-09-30T11:12:26.840Z,2266.67
2022-09-30T11:15:04.291Z,2266.67
2022-09-30T11:17:39.607Z,2266.67
2022-09-30T11:20:18.362Z,2266.67
2022-09-30T11:22:54.554Z,2266.67
2022-09-30T11:25:29.001Z,2266.67
2022-09-30T11:28:13.020Z,2266.67
2022-09-30T11:30:52.909Z,2266.67
2022-09-30T11:33:37.078Z,2266.67
2022-09-30T11:36:15.874Z,2266.67
2022-09-30T11:39:05.975Z,2266.67
2022-09-30T11:41:37.897Z,2266.67
2022-09-30T11:44:21.249Z,2266.67
2022-09-30T11:47:13.260Z,2266.67
2022-09-30T11:50:23.835Z,2266.67
2022-09-30T11:53:03.194Z,2266.67
2022-09-30T11:55:48.721Z,2266.67
2022-09-30T11:58:40.352Z,2266.67
2022-09-30T12:01:21.796Z,2266.67
2022-09-30T12:03:59.009Z,2266.67
2022-09-30T12:06:33.029Z,2266.67
2022-09-30T12:09:07.143Z,2266.67
2022-09-30T12:11:41.042Z,2266.67
2022-09-30T12:14:18.068Z,2266.67
2022-09-30T12:16:51.270Z,2266.67
2022-09-30T12:19:25.732Z,2266.67
2022-09-30T12:21:58.962Z,2266.67
2022-09-30T12:24:33.098Z,2266.67
2022-09-30T12:27:02.018Z,2266.67
2022-09-30T12:29:54.071Z,2266.67
2022-09-30T12:32:51.417Z,2266.67
2022-09-30T12:35:57.848Z,2266.67
2022-09-30T12:38:43.108Z,2266.67
2022-09-30T12:41:32.159Z,2266.67
2022-09-30T12:44:31.963Z,2266.67
2022-09-30T12:47:11.137Z,2266.67
2022-09-30T12:49:42.608Z,2266.67
2022-09-30T12:52:15.505Z,2266.67
2022-09-30T12:54:49.468Z,2266.67
2022-09-30T12:57:21.859Z,2266.67
2022-09-30T12:59:54.977Z,2266.67
2022-09-30T13:02:32.169Z,2266.67
2022-09-30T13:05:33.745Z,2266.67
2022-09-30T13:08:25.891Z,2266.67
2022-09-30T13:10:59.287Z,2266.67
2022-09-30T13:13:30.746Z,2266.67
2022-09-30T13:16:03.444Z,2266.67
2022-09-30T13:19:00.757Z,2266.67
2022-09-30T13:21:32.101Z,2266.67
2022-09-30T13:24:02.214Z,2266.67
2022-09-30T13:26:35.308Z,2266.67
2022-09-30T13:29:29.615Z,2266.67
2022-09-30T13:32:05.143Z,2266.67
2022-09-30T13:34:36.455Z,2266.67
2022-09-30T13:37:05.883Z,2266.67
2022-09-30T13:39:46.701Z,2266.67
2022-09-30T13:42:24.486Z,2266.67
2022-09-30T13:45:03.722Z,2266.67
2022-09-30T13:47:36.210Z,2266.67
2022-09-30T13:50:14.591Z,2266.67
2022-09-30T13:52:44.234Z,2266.67
2022-09-30T13:55:19.721Z,2266.67
2022-09-30T13:58:04.372Z,2266.67
2022-09-30T14:00:47.481Z,2266.67
2022-09-30T14:03:38.635Z,2266.67
2022-09-30T14:06:23.025Z,2266.67
2022-09-30T14:09:18.891Z,2266.67
2022-09-30T14:12:04.593Z,2266.67
2022-09-30T14:15:09.769Z,2266.67
2022-09-30T14:17:54.882Z,2266.67
2022-09-30T14:20:35.628Z,2266.67
2022-09-30T14:23:05.188Z,2266.67
2022-09-30T14:25:46.187Z,2266.67
2022-09-30T14:28:21.367Z,2266.67
2022-09-30T14:31:03.599Z,2266.67
2022-09-30T14:33:34.349Z,2266.67
2022-09-30T14:36:04.374Z,2266.67
2022-09-30T14:38:35.889Z,2266.67
2022-09-30T14:41:14.118Z,2266.67
2022-09-30T14:43:46.628Z,2266.67
2022-09-30T14:46:26.481Z,2266.67
2022-09-30T14:48:58.921Z,2266.67
2022-09-30T14:51:27.499Z,2266.67
2022-09-30T14:53:57.580Z,2266.67
2022-09-30T14:56:30.534Z,2266.67
2022-09-30T14:59:00.982Z,2266.67
2022-09-30T15:01:33.885Z,2266.67
2022-09-30T15:04:08.398Z,2266.67
2022-09-30T15:06:41.102Z,2266.67
2022-09-30T15:09:17.828Z,2266.67
2022-09-30T15:11:46.831Z,2266.67
2022-09-30T15:14:20.386Z,2266.67
2022-09-30T15:16:50.603Z,2266.67
2022-09-30T15:19:21.489Z,2266.67
2022-09-30T15:21:50.877Z,2266.67
2022-09-30T15:24:21.302Z,2266.67
2022-09-30T15:26:50.728Z,2266.67
2022-09-30T15:29:20.356Z,2266.67
2022-09-30T15:31:51.554Z,2266.67
2022-09-30T15:34:24.011Z,2266.67
2022-09-30T15:37:00.325Z,2266.67
2022-09-30T15:39:51.460Z,2266.67
2022-09-30T15:42:31.902Z,2266.67
2022-09-30T15:45:02.262Z,2266.67
2022-09-30T15:47:31.020Z,2266.67
2022-09-30T15:49:59.399Z,2266.67
2022-09-30T15:52:30.484Z,2266.67
2022-09-30T15:54:59.205Z,2266.67
2022-09-30T15:57:47.987Z,2266.67
2022-09-30T16:00:39.537Z,2266.67
2022-09-30T16:03:27.847Z,2266.67
2022-09-30T16:06:06.940Z,2266.67
2022-09-30T16:08:43.969Z,2266.67
2022-09-30T16:11:21.805Z,2266.67
2022-09-30T16:13:51.490Z,2266.67
2022-09-30T16:16:25.532Z,2266.67
2022-09-30T16:18:55.902Z,2266.67
2022-09-30T16:21:31.437Z,2266.67
2022-09-30T16:23:59.740Z,2266.67
2022-09-30T16:26:30.762Z,2266.67
2022-09-30T16:29:05.846Z,2266.67
2022-09-30T16:31:37.938Z,2266.67
2022-09-30T16:34:06.231Z,2266.67
2022-09-30T16:36:34.763Z,2266.67
2022-09-30T16:39:03.260Z,2266.67
2022-09-30T16:41:31.415Z,2266.67
2022-09-30T16:43:59.485Z,2266.67
2022-09-30T16:46:27.626Z,2266.67
2022-09-30T16:48:57.362Z,2266.67
2022-09-30T16:51:26.999Z,2266.67
2022-09-30T16:53:56.344Z,2266.67
2022-09-30T16:56:26.509Z,2266.67
2022-09-30T16:58:55.926Z,2266.67
2022-09-30T17:01:26.321Z,2266.67
2022-09-30T17:03:56.576Z,2266.67
2022-09-30T17:06:30.329Z,2266.67
2022-09-30T17:09:01.055Z,1807.87
2022-09-30T17:11:33.124Z,1023.70
2022-09-30T17:14:02.730Z,1324.80
2022-09-30T17:16:31.910Z,1143.90
2022-09-30T17:19:00.509Z,1064.80
2022-09-30T17:21:29.972Z,1860.70
2022-09-30T17:23:58.845Z,1865.27
2022-09-30T17:26:28.279Z,1829.20
2022-09-30T17:29:08.785Z,1869.93
2022-09-30T17:31:43.191Z,1826.87
2022-09-30T17:34:11.512Z,1055.80
2022-09-30T17:36:41.733Z,1937.10
2022-09-30T17:39:11.373Z,837.07
2022-09-30T17:41:57.054Z,1846.90
2022-09-30T17:44:25.774Z,1675.27
2022-09-30T17:47:00.442Z,1658.47
2022-09-30T17:49:34.048Z,1680.07
2022-09-30T17:52:04.131Z,1826.43
2022-09-30T17:54:33.092Z,603.20
2022-09-30T17:57:01.742Z,894.83
2022-09-30T17:59:30.034Z,1247.93
2022-09-30T18:01:58.302Z,1597.87
2022-09-30T18:04:27.194Z,1529.27
2022-09-30T18:06:56.175Z,1582.23
2022-09-30T18:09:25.906Z,1580.07
2022-09-30T18:11:54.477Z,1598.43
2022-09-30T18:14:22.977Z,1560.97
2022-09-30T18:16:52.397Z,1525.80
2022-09-30T18:19:21.086Z,1492.37
2022-09-30T18:21:53.302Z,1568.77
2022-09-30T18:24:42.531Z,1494.03
2022-09-30T18:27:13.044Z,1424.67
2022-09-30T18:29:43.033Z,1485.27
2022-09-30T18:32:11.738Z,1501.60
2022-09-30T18:34:40.314Z,1340.70
2022-09-30T18:37:08.878Z,1249.90
2022-09-30T18:39:38.113Z,1173.47
2022-09-30T18:42:07.743Z,1066.70
2022-09-30T18:44:38.117Z,752.53
2022-09-30T18:47:06.954Z,874.93
2022-09-30T18:49:35.180Z,741.53
2022-09-30T18:52:04.602Z,636.47
2022-09-30T18:54:33.695Z,596.00
2022-09-30T18:57:01.933Z,505.43
2022-09-30T18:59:30.147Z,522.53
2022-09-30T19:02:02.896Z,487.60
2022-09-30T19:04:31.148Z,438.77
2022-09-30T19:06:59.445Z,433.33
2022-09-30T19:09:28.281Z,435.60
2022-09-30T19:11:56.961Z,416.70
2022-09-30T19:14:25.152Z,424.07
2022-09-30T19:16:53.609Z,415.97
2022-09-30T19:19:23.849Z,398.73
2022-09-30T19:21:52.881Z,398.97
2022-09-30T19:24:24.105Z,364.97
2022-09-30T19:26:55.583Z,341.27
2022-09-30T19:29:24.949Z,313.63
2022-09-30T19:31:53.236Z,280.03
2022-09-30T19:34:30.659Z,275.83
2022-09-30T19:37:00.405Z,260.17
2022-09-30T19:39:39.858Z,256.13
2022-09-30T19:42:29.733Z,240.97
2022-09-30T19:44:58.544Z,231.90
2022-09-30T19:47:30.986Z,240.80
2022-09-30T19:50:04.164Z,214.50
2022-09-30T19:52:32.556Z,249.73
2022-09-30T19:55:11.771Z,235.73
2022-09-30T19:57:42.041Z,243.63
2022-09-30T20:00:13.814Z,228.87
2022-09-30T20:02:42.198Z,228.53
2022-09-30T20:05:12.509Z,232.03
2022-09-30T20:07:41.335Z,226.37
2022-09-30T20:10:10.202Z,233.63
2022-09-30T20:12:38.819Z,207.27
2022-09-30T20:15:24.958Z,211.90
2022-09-30T20:17:55.389Z,177.37
2022-09-30T20:20:38.380Z,187.13
2022-09-30T20:23:06.717Z,192.47
2022-09-30T20:25:36.253Z,173.53
2022-09-30T20:28:05.443Z,173.33
2022-09-30T20:30:34.954Z,169.03
2022-09-30T20:33:04.370Z,179.23
2022-09-30T20:35:36.894Z,183.10
2022-09-30T20:38:05.223Z,178.67
2022-09-30T20:40:34.440Z,189.30
2022-09-30T20:43:03.531Z,184.93
2022-09-30T20:45:31.999Z,169.33
2022-09-30T20:48:01.179Z,182.60
2022-09-30T20:50:38.476Z,177.53
2022-09-30T20:53:11.086Z,185.67
2022-09-30T20:55:41.655Z,187.40
2022-09-30T20:58:11.063Z,178.53
2022-09-30T21:00:42.190Z,203.97
2022-09-30T21:03:12.917Z,189.37
2022-09-30T21:05:41.355Z,182.67
2022-09-30T21:08:10.866Z,178.40
2022-09-30T21:10:39.088Z,188.17
2022-09-30T21:13:11.288Z,183.70
2022-09-30T21:15:39.933Z,170.33
2022-09-30T21:18:09.752Z,198.73
2022-09-30T21:20:38.286Z,175.93
2022-09-30T21:23:06.437Z,182.73
2022-09-30T21:25:35.883Z,184.53
2022-09-30T21:28:04.535Z,177.73
2022-09-30T21:30:32.785Z,175.20
2022-09-30T21:33:00.911Z,170.30
2022-09-30T21:35:29.121Z,184.43
2022-09-30T21:37:57.328Z,177.10
2022-09-30T21:40:25.552Z,168.97
2022-09-30T21:42:55.146Z,183.30
2022-09-30T21:45:23.375Z,170.53
2022-09-30T21:47:52.024Z,171.33
2022-09-30T21:50:20.212Z,172.30
2022-09-30T21:52:50.230Z,177.80
2022-09-30T21:55:18.932Z,176.87
2022-09-30T21:57:48.485Z,170.20
2022-09-30T22:00:18.320Z,180.37
2022-09-30T22:02:47.014Z,167.67
2022-09-30T22:05:20.581Z,186.53
2022-09-30T22:07:48.900Z,170.27
2022-09-30T22:10:19.285Z,165.50
2022-09-30T22:12:51.092Z,158.50
2022-09-30T22:15:20.654Z,175.77
2022-09-30T22:17:48.849Z,168.93
2022-09-30T22:20:17.140Z,173.17
2022-09-30T22:22:45.994Z,178.00
2022-09-30T22:25:14.178Z,174.70
2022-09-30T22:27:42.998Z,169.40
2022-09-30T22:30:11.796Z,165.57
2022-09-30T22:32:41.406Z,178.23
2022-09-30T22:35:29.304Z,168.07
2022-09-30T22:38:15.967Z,169.47
2022-09-30T22:40:44.156Z,181.27
2022-09-30T22:43:12.451Z,176.60
2022-09-30T22:45:41.689Z,174.63
2022-09-30T22:48:11.223Z,171.43
2022-09-30T22:50:39.548Z,189.93
2022-09-30T22:53:08.794Z,198.30
2022-09-30T22:55:38.024Z,226.00
2022-09-30T22:58:07.223Z,217.73
2022-09-30T23:00:35.639Z,224.50
2022-09-30T23:03:04.064Z,230.83
2022-09-30T23:05:36.501Z,251.97
2022-09-30T23:08:04.978Z,259.43
2022-09-30T23:10:33.177Z,261.07
2022-09-30T23:13:01.400Z,284.17
2022-09-30T23:15:29.572Z,263.97
2022-09-30T23:17:57.667Z,277.33
2022-09-30T23:20:25.788Z,276.10
2022-09-30T23:22:55.342Z,282.30
2022-09-30T23:25:23.540Z,271.67
2022-09-30T23:27:53.350Z,302.90
2022-09-30T23:30:21.531Z,289.50
2022-09-30T23:32:50.581Z,286.40
2022-09-30T23:35:18.958Z,253.50
2022-09-30T23:37:50.583Z,240.17
2022-09-30T23:40:20.124Z,231.47
2022-09-30T23:42:50.373Z,218.80
2022-09-30T23:45:18.461Z,203.40
2022-09-30T23:47:48.979Z,206.73
2022-09-30T23:50:17.331Z,197.07
2022-09-30T23:52:45.421Z,195.80
2022-09-30T23:55:13.554Z,175.43
2022-09-30T23:57:46.627Z,176.40
